Time;durP1;ratioP1;P1;durP2;ratioP2;P2;SDS_P1;SDS_P2;PMS_P1;PMS_P2;Temp;Humidity;BMP_temperature;BMP_pressure;BME280_temperature;BME280_humidity;BME280_pressure;Samples;Min_cycle;Max_cycle;Signal;HPM_P1;HPM_P2
2022/03/11 00:01:03;;;;;;;4.85;2.28;;;20.30;44.20;;;;;;4993408;28;20481;-59
2022/03/11 00:03:29;;;;;;;4.72;1.83;;;20.30;44.20;;;;;;4992640;28;20046;-59
2022/03/11 00:05:54;;;;;;;3.75;2.08;;;20.30;44.20;;;;;;4993294;28;20058;-59
2022/03/11 00:08:19;;;;;;;3.38;1.95;;;20.30;44.10;;;;;;4993301;28;20042;-60
2022/03/11 00:10:45;;;;;;;2.85;1.70;;;20.20;44.10;;;;;;4996947;28;20101;-60
2022/03/11 00:13:11;;;;;;;3.65;1.73;;;20.20;44.10;;;;;;4996490;28;20508;-60
2022/03/11 00:15:37;;;;;;;3.83;1.60;;;20.20;44.10;;;;;;4995170;28;20053;-60
2022/03/11 00:18:03;;;;;;;2.78;1.80;;;20.20;44.00;;;;;;4996782;28;20047;-59
2022/03/11 00:20:30;;;;;;;3.55;1.90;;;20.20;44.00;;;;;;4996756;28;20046;-59
2022/03/11 00:22:56;;;;;;;4.03;1.83;;;20.20;44.00;;;;;;4996186;28;20046;-59
2022/03/11 00:25:21;;;;;;;2.80;1.65;;;20.20;44.00;;;;;;4996676;28;20100;-60
2022/03/11 00:27:47;;;;;;;4.45;1.98;;;20.10;44.00;;;;;;4996757;28;20054;-60
2022/03/11 00:30:13;;;;;;;5.72;2.17;;;20.10;43.90;;;;;;4995657;28;20487;-59
2022/03/11 00:32:38;;;;;;;4.03;1.70;;;20.10;43.80;;;;;;4996921;28;20478;-60
2022/03/11 00:35:09;;;;;;;3.35;1.77;;;20.10;43.90;;;;;;4996387;28;20045;-59
2022/03/11 00:37:38;;;;;;;4.25;2.00;;;20.10;43.90;;;;;;4995777;28;20053;-60
2022/03/11 00:40:05;;;;;;;4.05;1.83;;;20.10;43.90;;;;;;4996297;28;20054;-59
2022/03/11 00:42:31;;;;;;;5.22;2.22;;;20.10;43.80;;;;;;4996390;28;20406;-59
2022/03/11 00:44:56;;;;;;;5.50;2.13;;;20.10;43.80;;;;;;4995691;28;20057;-59
2022/03/11 00:47:22;;;;;;;3.83;1.70;;;20.10;43.80;;;;;;4996274;28;20046;-59
2022/03/11 00:49:47;;;;;;;4.22;1.92;;;20.00;43.70;;;;;;4996277;28;20129;-59
2022/03/11 00:52:13;;;;;;;4.30;1.65;;;20.00;43.60;;;;;;4995256;28;20405;-59
2022/03/11 00:54:38;;;;;;;3.97;2.00;;;20.00;43.60;;;;;;4996358;28;20054;-59
2022/03/11 00:57:04;;;;;;;3.50;1.83;;;20.00;43.50;;;;;;5010010;28;20049;-59
2022/03/11 00:59:29;;;;;;;3.40;1.70;;;20.00;43.60;;;;;;5013448;28;20053;-59
2022/03/11 01:01:55;;;;;;;3.63;1.60;;;20.00;43.50;;;;;;5015550;28;20493;-59
2022/03/11 01:04:20;;;;;;;3.33;1.85;;;20.00;43.50;;;;;;5014293;28;20525;-59
2022/03/11 01:06:46;;;;;;;6.18;2.17;;;20.00;43.60;;;;;;5013241;28;20041;-59
2022/03/11 01:09:11;;;;;;;4.60;2.25;;;19.90;43.40;;;;;;5015333;28;20153;-59
2022/03/11 01:11:37;;;;;;;4.60;2.25;;;19.90;43.50;;;;;;5014765;28;20042;-60
2022/03/11 01:14:03;;;;;;;2.90;1.60;;;19.90;43.40;;;;;;5015524;28;20061;-59
2022/03/11 01:16:29;;;;;;;3.85;1.85;;;19.90;43.40;;;;;;5015409;28;20125;-59
2022/03/11 01:18:54;;;;;;;3.20;1.70;;;19.90;43.40;;;;;;5014261;28;20490;-59
2022/03/11 01:21:20;;;;;;;3.50;1.80;;;19.90;43.30;;;;;;5013841;28;20103;-59
2022/03/11 01:23:45;;;;;;;4.63;1.65;;;19.90;43.30;;;;;;5015437;28;20038;-59
2022/03/11 01:26:12;;;;;;;3.17;1.80;;;19.90;43.30;;;;;;5012970;28;20501;-59
2022/03/11 01:28:41;;;;;;;3.83;1.85;;;19.90;43.30;;;;;;5015204;28;20456;-59
2022/03/11 01:31:07;;;;;;;3.80;1.88;;;19.90;43.30;;;;;;5015188;28;20045;-59
2022/03/11 01:33:33;;;;;;;2.90;1.70;;;19.90;43.30;;;;;;5014382;28;20049;-59
2022/03/11 01:35:59;;;;;;;4.70;1.90;;;19.90;43.30;;;;;;5013999;28;20096;-59
2022/03/11 01:38:24;;;;;;;3.13;1.70;;;19.80;43.20;;;;;;5014515;28;20062;-60
2022/03/11 01:40:50;;;;;;;2.78;1.73;;;19.80;43.20;;;;;;5014276;28;20412;-60
2022/03/11 01:43:16;;;;;;;3.55;1.67;;;19.80;43.30;;;;;;5014842;28;20557;-59
2022/03/11 01:45:41;;;;;;;3.35;1.92;;;19.80;44.00;;;;;;5014783;28;20509;-60
2022/03/11 01:48:09;;;;;;;3.83;1.90;;;19.80;43.20;;;;;;5013551;28;20053;-59
2022/03/11 01:50:35;;;;;;;3.00;1.80;;;19.80;43.20;;;;;;5015050;28;20103;-60
2022/03/11 01:53:00;;;;;;;3.42;2.05;;;19.80;43.20;;;;;;5013686;28;20045;-60
2022/03/11 01:55:26;;;;;;;2.72;1.67;;;19.80;43.20;;;;;;5013915;28;20370;-60
2022/03/11 01:57:51;;;;;;;3.22;1.50;;;19.70;43.10;;;;;;5014642;28;20116;-60
2022/03/11 02:00:17;;;;;;;3.20;1.60;;;19.80;43.10;;;;;;4996771;28;20053;-59
2022/03/11 02:02:43;;;;;;;3.38;1.98;;;19.80;43.10;;;;;;5013664;28;20117;-60
2022/03/11 02:05:09;;;;;;;3.88;1.77;;;19.70;43.00;;;;;;5013291;28;20141;-60
2022/03/11 02:07:34;;;;;;;4.05;1.83;;;19.70;43.00;;;;;;5014614;28;20434;-59
2022/03/11 02:10:00;;;;;;;3.42;1.73;;;19.70;43.00;;;;;;5012408;28;20049;-60
2022/03/11 02:12:36;;;;;;;3.42;1.85;;;19.70;43.00;;;;;;5013756;28;20050;-60
2022/03/11 02:15:03;;;;;;;3.78;1.90;;;19.70;42.90;;;;;;5013613;28;20038;-59
2022/03/11 02:17:28;;;;;;;4.10;2.08;;;19.70;43.60;;;;;;5013910;28;20442;-60
2022/03/11 02:19:54;;;;;;;4.03;1.98;;;19.70;42.80;;;;;;5014468;28;20571;-59
2022/03/11 02:22:21;;;;;;;2.88;1.40;;;19.70;42.80;;;;;;5013234;28;20041;-60
2022/03/11 02:24:47;;;;;;;3.53;1.63;;;19.70;42.80;;;;;;5014343;28;20133;-60
2022/03/11 02:27:12;;;;;;;3.67;1.80;;;19.70;42.80;;;;;;5013830;28;20141;-60
2022/03/11 02:29:38;;;;;;;4.35;1.80;;;19.70;42.70;;;;;;5013011;28;20068;-60
2022/03/11 02:32:04;;;;;;;3.20;1.80;;;19.70;42.70;;;;;;5013560;28;20121;-60
2022/03/11 02:34:29;;;;;;;4.10;1.75;;;19.70;42.70;;;;;;5014181;28;20477;-60
2022/03/11 02:36:55;;;;;;;3.90;1.70;;;19.70;42.70;;;;;;5013184;28;20069;-60
2022/03/11 02:39:20;;;;;;;4.60;2.08;;;19.80;42.70;;;;;;5013443;28;20054;-60
2022/03/11 02:41:49;;;;;;;3.33;1.75;;;19.80;42.70;;;;;;5014026;28;20046;-60
2022/03/11 02:44:15;;;;;;;4.63;1.90;;;19.80;42.70;;;;;;5012613;28;20057;-60
2022/03/11 02:46:40;;;;;;;3.60;1.70;;;19.80;42.60;;;;;;5013738;28;20112;-60
2022/03/11 02:49:06;;;;;;;4.10;1.73;;;19.80;42.60;;;;;;5013582;28;20050;-60
2022/03/11 02:51:31;;;;;;;3.92;1.67;;;19.80;42.50;;;;;;5013168;28;20093;-60
2022/03/11 02:53:57;;;;;;;4.10;2.30;;;19.80;42.40;;;;;;5013615;28;20112;-60
2022/03/11 02:56:23;;;;;;;5.68;1.95;;;19.80;42.40;;;;;;5013539;28;20160;-59
2022/03/11 02:58:49;;;;;;;3.70;2.05;;;19.80;42.50;;;;;;5012755;28;20069;-59
2022/03/11 03:01:14;;;;;;;3.97;1.80;;;19.80;42.40;;;;;;5003542;28;20097;-59
2022/03/11 03:03:40;;;;;;;3.38;1.65;;;19.90;42.40;;;;;;4993994;28;20073;-59
2022/03/11 03:06:05;;;;;;;4.00;1.95;;;19.90;42.30;;;;;;4992286;28;20457;-59
2022/03/11 03:08:32;;;;;;;3.33;1.77;;;19.90;42.30;;;;;;4993734;28;20042;-59
2022/03/11 03:10:58;;;;;;;3.65;1.92;;;19.90;42.30;;;;;;4993971;28;20046;-59
2022/03/11 03:13:24;;;;;;;3.25;1.92;;;19.90;42.30;;;;;;4992699;28;20052;-59
2022/03/11 03:15:49;;;;;;;4.15;2.00;;;19.90;42.30;;;;;;4993623;28;20509;-59
2022/03/11 03:18:15;;;;;;;3.60;1.98;;;19.90;42.30;;;;;;4992295;28;20088;-59
2022/03/11 03:20:41;;;;;;;2.85;1.73;;;19.90;42.20;;;;;;4993584;28;20398;-59
2022/03/11 03:23:07;;;;;;;3.85;1.88;;;19.90;42.20;;;;;;4993396;28;20045;-59
2022/03/11 03:25:32;;;;;;;4.03;1.83;;;19.90;42.20;;;;;;4992801;28;20038;-59
2022/03/11 03:27:58;;;;;;;3.25;1.90;;;19.90;42.20;;;;;;4993488;28;20482;-59
2022/03/11 03:30:23;;;;;;;3.38;1.88;;;19.90;42.20;;;;;;4993375;28;20054;-59
2022/03/11 03:32:49;;;;;;;2.95;1.85;;;19.90;42.20;;;;;;4992880;28;20082;-59
2022/03/11 03:35:14;;;;;;;3.83;2.05;;;19.90;42.20;;;;;;4993323;28;20052;-59
2022/03/11 03:37:40;;;;;;;3.58;2.17;;;19.90;42.20;;;;;;4993049;28;20438;-60
2022/03/11 03:40:06;;;;;;;3.30;1.90;;;19.90;42.20;;;;;;4992541;28;20054;-59
2022/03/11 03:42:32;;;;;;;3.95;2.40;;;20.00;42.20;;;;;;4992772;28;20050;-60
2022/03/11 03:44:57;;;;;;;3.17;2.00;;;20.00;42.20;;;;;;4993350;28;20050;-60
2022/03/11 03:47:23;;;;;;;4.65;2.10;;;20.00;42.20;;;;;;4992402;28;20034;-59
2022/03/11 03:49:48;;;;;;;4.90;2.28;;;20.00;42.20;;;;;;4993445;28;20429;-59
2022/03/11 03:52:14;;;;;;;5.00;2.20;;;20.00;42.20;;;;;;4991431;28;20073;-59
2022/03/11 03:54:39;;;;;;;3.50;1.90;;;20.00;42.20;;;;;;4992417;28;20505;-59
2022/03/11 03:57:05;;;;;;;4.05;2.17;;;20.00;42.20;;;;;;4993029;28;20038;-60
2022/03/11 03:59:31;;;;;;;4.82;2.50;;;20.00;42.10;;;;;;4993208;28;20070;-59
2022/03/11 04:01:56;;;;;;;4.05;2.33;;;20.00;42.10;;;;;;4992723;28;20122;-59
2022/03/11 04:04:22;;;;;;;4.00;2.17;;;20.00;42.10;;;;;;4992734;28;20050;-59
2022/03/11 04:06:47;;;;;;;3.85;2.20;;;20.00;42.20;;;;;;4992077;28;20048;-60
2022/03/11 04:09:13;;;;;;;3.53;2.10;;;20.10;42.20;;;;;;4992175;28;20105;-59
2022/03/11 04:11:40;;;;;;;3.70;2.20;;;20.00;42.20;;;;;;4992750;28;20347;-59
2022/03/11 04:14:06;;;;;;;3.72;2.28;;;20.10;42.20;;;;;;4992968;28;20078;-59
2022/03/11 04:16:31;;;;;;;5.30;2.55;;;20.10;42.20;;;;;;4992541;28;20077;-59
2022/03/11 04:18:57;;;;;;;4.15;2.38;;;20.10;42.10;;;;;;4993026;28;20047;-59
2022/03/11 04:21:23;;;;;;;4.38;2.40;;;20.10;42.10;;;;;;4992815;28;20856;-59
2022/03/11 04:23:49;;;;;;;4.07;2.42;;;20.10;42.10;;;;;;4992139;28;20046;-59
2022/03/11 04:26:14;;;;;;;4.35;2.60;;;20.10;42.10;;;;;;4992865;28;20042;-59
2022/03/11 04:28:40;;;;;;;3.67;2.20;;;20.10;42.10;;;;;;4992235;28;20097;-60
2022/03/11 04:31:07;;;;;;;3.78;2.30;;;20.10;42.00;;;;;;4992570;28;20050;-59
2022/03/11 04:33:33;;;;;;;4.10;2.28;;;20.10;42.00;;;;;;4993141;28;20038;-60
2022/03/11 04:35:58;;;;;;;4.55;2.55;;;20.20;42.00;;;;;;4992079;28;20047;-59
2022/03/11 04:38:24;;;;;;;4.30;2.53;;;20.20;42.00;;;;;;4992394;28;20061;-59
2022/03/11 04:40:50;;;;;;;3.90;2.42;;;20.20;42.00;;;;;;4992971;28;20046;-60
2022/03/11 04:43:15;;;;;;;4.45;2.35;;;20.10;42.00;;;;;;4991567;28;20054;-59
2022/03/11 04:45:41;;;;;;;4.70;2.78;;;20.10;41.90;;;;;;4993297;28;20061;-59
2022/03/11 04:48:06;;;;;;;5.07;2.90;;;20.10;41.90;;;;;;4992520;28;20100;-59
2022/03/11 04:50:32;;;;;;;4.63;2.42;;;20.10;41.90;;;;;;4992331;28;20105;-60
2022/03/11 04:52:58;;;;;;;4.72;2.85;;;20.20;42.00;;;;;;4992898;28;20458;-59
2022/03/11 04:55:23;;;;;;;4.95;3.03;;;20.20;41.90;;;;;;4995011;28;20054;-60
2022/03/11 04:57:49;;;;;;;4.60;2.78;;;20.20;41.90;;;;;;4995560;28;20133;-60
2022/03/11 05:00:15;;;;;;;5.05;2.80;;;20.20;41.90;;;;;;4994909;28;20038;-59
2022/03/11 05:02:44;;;;;;;5.90;2.75;;;20.20;41.90;;;;;;4981486;28;20039;-59
2022/03/11 05:05:14;;;;;;;5.63;2.85;;;20.20;41.90;;;;;;4994528;28;20060;-60
2022/03/11 05:07:39;;;;;;;4.15;2.63;;;20.20;41.80;;;;;;4995455;28;20405;-59
2022/03/11 05:10:08;;;;;;;4.78;2.78;;;20.20;41.80;;;;;;4995590;28;20568;-59
2022/03/11 05:12:35;;;;;;;4.10;2.92;;;20.20;41.80;;;;;;4995386;28;20035;-60
2022/03/11 05:15:01;;;;;;;4.30;2.63;;;20.20;41.80;;;;;;4996040;28;20046;-60
2022/03/11 05:17:27;;;;;;;5.40;3.00;;;20.20;41.80;;;;;;4995579;28;20105;-59
2022/03/11 05:19:52;;;;;;;4.43;2.75;;;20.20;41.70;;;;;;4995201;28;20050;-60
2022/03/11 05:22:18;;;;;;;5.03;3.05;;;20.20;41.70;;;;;;4995230;28;20088;-59
2022/03/11 05:24:44;;;;;;;4.90;2.92;;;20.20;41.80;;;;;;4995362;28;20042;-60
2022/03/11 05:27:09;;;;;;;5.70;3.25;;;20.30;41.80;;;;;;4995398;28;20049;-59
2022/03/11 05:29:35;;;;;;;4.32;2.85;;;20.20;41.70;;;;;;4995692;28;20053;-59
2022/03/11 05:32:01;;;;;;;5.95;3.28;;;20.20;41.70;;;;;;4994915;28;20042;-59
2022/03/11 05:34:27;;;;;;;5.28;3.20;;;20.30;41.80;;;;;;4995583;28;20078;-59
2022/03/11 05:36:52;;;;;;;5.38;3.03;;;20.30;41.70;;;;;;4995431;28;20136;-59
2022/03/11 05:39:18;;;;;;;5.55;3.13;;;20.30;41.70;;;;;;4994185;28;20062;-59
2022/03/11 05:41:46;;;;;;;4.97;3.15;;;20.30;41.70;;;;;;4995715;28;20058;-59
2022/03/11 05:44:12;;;;;;;5.07;3.03;;;20.30;41.70;;;;;;4995105;28;20430;-59
2022/03/11 05:46:37;;;;;;;4.88;3.50;;;20.30;42.40;;;;;;4994793;28;20101;-59
2022/03/11 05:49:03;;;;;;;5.43;3.13;;;20.30;41.70;;;;;;4995207;28;20092;-59
2022/03/11 05:51:28;;;;;;;4.30;2.88;;;20.30;41.70;;;;;;4995408;28;20126;-60
2022/03/11 05:53:54;;;;;;;4.88;3.00;;;20.30;41.70;;;;;;4994555;28;20043;-60
2022/03/11 05:56:20;;;;;;;5.57;3.58;;;20.30;41.70;;;;;;4994824;28;20042;-59
2022/03/11 05:58:46;;;;;;;5.28;3.47;;;20.30;41.60;;;;;;4995163;28;20073;-59
2022/03/11 06:01:12;;;;;;;5.40;3.05;;;20.30;41.70;;;;;;4994169;28;20050;-59
2022/03/11 06:03:37;;;;;;;5.55;3.42;;;20.30;41.60;;;;;;4995256;28;20042;-60
2022/03/11 06:06:03;;;;;;;5.65;3.50;;;20.30;41.60;;;;;;4994240;28;20098;-60
2022/03/11 06:08:28;;;;;;;5.63;3.20;;;20.30;41.60;;;;;;4994087;28;20493;-60
2022/03/11 06:10:54;;;;;;;5.30;3.28;;;20.40;41.60;;;;;;4994868;28;20046;-59
2022/03/11 06:13:19;;;;;;;4.80;3.05;;;20.40;41.60;;;;;;4993499;28;20104;-59
2022/03/11 06:15:45;;;;;;;4.93;3.40;;;20.40;41.60;;;;;;4994206;28;20058;-59
2022/03/11 06:18:13;;;;;;;5.50;3.28;;;20.30;41.50;;;;;;4994334;28;20068;-59
2022/03/11 06:20:38;;;;;;;5.40;3.75;;;20.30;41.50;;;;;;4995004;28;20046;-59
2022/03/11 06:23:04;;;;;;;5.78;3.60;;;20.30;41.50;;;;;;4993227;28;20053;-59
2022/03/11 06:25:30;;;;;;;5.55;3.47;;;20.40;41.60;;;;;;4994838;28;20074;-59
2022/03/11 06:27:55;;;;;;;6.20;4.00;;;20.40;41.50;;;;;;4994659;28;20050;-60
2022/03/11 06:30:21;;;;;;;4.82;3.50;;;20.40;41.50;;;;;;4993560;28;20061;-59
2022/03/11 06:32:47;;;;;;;5.40;3.50;;;20.40;41.50;;;;;;4994516;28;20046;-59
2022/03/11 06:35:13;;;;;;;6.10;3.58;;;20.40;41.50;;;;;;4993380;28;20046;-59
2022/03/11 06:37:39;;;;;;;5.45;3.28;;;20.40;41.40;;;;;;4993877;28;20174;-59
2022/03/11 06:40:06;;;;;;;5.13;3.22;;;20.40;41.40;;;;;;4994232;28;20050;-59
2022/03/11 06:42:39;;;;;;;6.05;3.90;;;20.40;41.50;;;;;;4993555;28;20046;-59
2022/03/11 06:45:06;;;;;;;6.45;3.65;;;20.40;41.50;;;;;;4993870;28;20536;-59
2022/03/11 06:47:31;;;;;;;5.90;3.80;;;20.40;41.50;;;;;;4994316;28;20035;-60
2022/03/11 06:49:57;;;;;;;4.97;3.60;;;20.40;41.40;;;;;;4991894;28;20375;-60
2022/03/11 06:52:23;;;;;;;5.93;3.80;;;20.40;41.70;;;;;;4993837;28;20081;-59
2022/03/11 06:54:48;;;;;;;5.57;3.67;;;20.40;41.40;;;;;;4994158;28;20038;-59
2022/03/11 06:57:16;;;;;;;5.40;3.60;;;20.40;41.40;;;;;;4992828;28;20498;-59
2022/03/11 06:59:43;;;;;;;6.15;4.18;;;20.40;41.40;;;;;;4993893;28;20121;-59
2022/03/11 07:02:09;;;;;;;6.25;3.60;;;20.40;41.40;;;;;;4993772;28;20050;-59
2022/03/11 07:04:34;;;;;;;5.93;4.00;;;20.40;41.40;;;;;;4993272;28;20042;-60
2022/03/11 07:07:00;;;;;;;5.18;3.38;;;20.40;41.30;;;;;;4993618;28;20046;-60
2022/03/11 07:09:26;;;;;;;6.20;3.78;;;20.40;41.40;;;;;;4993599;28;20105;-60
2022/03/11 07:11:57;;;;;;;5.60;3.92;;;20.40;41.40;;;;;;4993249;28;20085;-62
2022/03/11 07:14:25;;;;;;;6.55;3.92;;;20.40;41.40;;;;;;4993541;28;20113;-59
2022/03/11 07:16:56;;;;;;;;;;;20.40;41.40;;;;;;4993926;28;20387;-59
2022/03/11 07:19:21;;;;;;;6.18;4.15;;;20.50;41.50;;;;;;4992346;28;19930;-59
2022/03/11 07:21:47;;;;;;;6.25;4.20;;;20.50;41.50;;;;;;4993669;28;20046;-60
2022/03/11 07:24:12;;;;;;;6.70;4.10;;;20.50;41.50;;;;;;4992268;28;20038;-59
2022/03/11 07:26:38;;;;;;;6.05;3.75;;;20.50;41.60;;;;;;4992569;28;20153;-59
2022/03/11 07:29:04;;;;;;;6.43;4.00;;;20.60;41.70;;;;;;4993334;28;20454;-60
2022/03/11 07:31:29;;;;;;;6.93;4.00;;;20.60;41.70;;;;;;4992576;28;20096;-60
2022/03/11 07:33:56;;;;;;;7.00;4.13;;;20.60;41.80;;;;;;4993553;28;20054;-60
2022/03/11 07:36:21;;;;;;;5.60;3.45;;;20.60;41.90;;;;;;4993365;28;20489;-60
2022/03/11 07:38:48;;;;;;;6.85;4.10;;;20.60;41.90;;;;;;4992333;28;20065;-60
2022/03/11 07:41:17;;;;;;;9.27;4.22;;;20.70;42.00;;;;;;4993276;28;20054;-60
2022/03/11 07:43:44;;;;;;;6.35;4.25;;;20.70;42.20;;;;;;4998590;28;20095;-59
2022/03/11 07:46:14;;;;;;;6.63;4.40;;;20.70;42.30;;;;;;5011887;28;20068;-60
2022/03/11 07:48:40;;;;;;;8.38;4.07;;;20.70;42.50;;;;;;5013060;28;20344;-59
2022/03/11 07:51:06;;;;;;;6.20;4.18;;;20.80;42.50;;;;;;5012678;28;20065;-59
2022/03/11 07:53:31;;;;;;;8.48;4.40;;;20.80;42.70;;;;;;5011938;28;20050;-59
2022/03/11 07:55:57;;;;;;;5.90;3.88;;;20.80;42.80;;;;;;5012885;28;20048;-59
2022/03/11 07:58:24;;;;;;;6.85;4.03;;;20.80;42.80;;;;;;5012692;28;20453;-59
2022/03/11 08:00:49;;;;;;;7.32;4.18;;;20.80;42.90;;;;;;5011960;28;20080;-60
2022/03/11 08:03:15;;;;;;;7.13;3.90;;;20.90;43.00;;;;;;5012414;28;20077;-60
2022/03/11 08:05:41;;;;;;;5.75;3.97;;;20.90;43.00;;;;;;5012937;28;20101;-60
2022/03/11 08:08:06;;;;;;;6.68;4.18;;;20.90;43.00;;;;;;5011446;28;20080;-60
2022/03/11 08:10:36;;;;;;;6.38;4.47;;;20.90;43.10;;;;;;5012869;28;20046;-60
2022/03/11 08:13:02;;;;;;;5.80;3.97;;;20.90;43.10;;;;;;5011374;28;20413;-59
2022/03/11 08:15:28;;;;;;;7.28;4.38;;;21.00;43.10;;;;;;5011428;28;20078;-59
2022/03/11 08:17:54;;;;;;;8.88;4.55;;;21.00;43.20;;;;;;5012958;28;20423;-59
2022/03/11 08:20:19;;;;;;;5.47;4.25;;;21.00;43.10;;;;;;5012533;28;20049;-59
2022/03/11 08:22:45;;;;;;;8.20;4.55;;;21.00;43.00;;;;;;5011710;28;20100;-59
2022/03/11 08:25:11;;;;;;;7.80;4.40;;;21.00;42.90;;;;;;5012552;28;20048;-59
2022/03/11 08:27:37;;;;;;;6.68;4.15;;;21.10;42.90;;;;;;5011691;28;20064;-59
2022/03/11 08:30:04;;;;;;;6.20;4.20;;;21.10;42.80;;;;;;5014469;28;20038;-59
2022/03/11 08:32:30;;;;;;;9.50;4.77;;;21.10;42.70;;;;;;5016434;28;20064;-59
2022/03/11 08:34:55;;;;;;;6.07;3.95;;;21.10;42.80;;;;;;5015252;28;20843;-59
2022/03/11 08:37:21;;;;;;;8.70;4.90;;;21.10;42.90;;;;;;5014989;28;20470;-58
2022/03/11 08:39:46;;;;;;;8.30;3.90;;;21.20;43.10;;;;;;5014774;28;20058;-59
2022/03/11 08:42:12;;;;;;;8.32;4.53;;;21.20;43.20;;;;;;5014939;28;20544;-59
2022/03/11 08:44:38;;;;;;;6.55;4.30;;;21.20;43.30;;;;;;5015913;28;20088;-59
2022/03/11 08:47:03;;;;;;;8.05;4.90;;;21.20;43.40;;;;;;5014404;28;20551;-59
2022/03/11 08:49:29;;;;;;;7.95;4.43;;;21.20;43.40;;;;;;5014043;28;20104;-58
2022/03/11 08:51:54;;;;;;;11.88;4.50;;;21.20;43.40;;;;;;5015823;28;20042;-59
2022/03/11 08:54:20;;;;;;;7.45;4.30;;;21.20;43.50;;;;;;5015679;28;20038;-59
2022/03/11 08:56:46;;;;;;;6.63;4.65;;;21.30;43.40;;;;;;5015004;28;20135;-60
2022/03/11 08:59:12;;;;;;;7.60;4.72;;;21.20;43.30;;;;;;5014143;28;20073;-60
2022/03/11 09:01:38;;;;;;;6.55;4.20;;;21.30;43.40;;;;;;5015911;28;20042;-60
2022/03/11 09:04:03;;;;;;;7.03;4.55;;;21.30;43.40;;;;;;5014762;28;20420;-59
2022/03/11 09:06:30;;;;;;;7.53;4.60;;;21.30;43.40;;;;;;5016015;28;20038;-59
2022/03/11 09:08:56;;;;;;;6.82;4.47;;;21.30;43.30;;;;;;5015322;28;20568;-60
2022/03/11 09:11:21;;;;;;;7.68;4.57;;;21.30;43.30;;;;;;5014657;28;20124;-60
2022/03/11 09:13:49;;;;;;;6.65;4.45;;;21.30;43.40;;;;;;5015431;28;20046;-60
2022/03/11 09:16:14;;;;;;;6.63;4.50;;;21.30;43.50;;;;;;5015489;28;20053;-59
2022/03/11 09:18:40;;;;;;;7.72;4.90;;;21.40;43.40;;;;;;5014764;28;20045;-60
2022/03/11 09:21:05;;;;;;;11.05;5.22;;;21.30;43.30;;;;;;5015060;28;20571;-60
2022/03/11 09:23:31;;;;;;;7.85;5.13;;;21.30;43.30;;;;;;5015539;28;20041;-60
2022/03/11 09:25:56;;;;;;;6.97;4.40;;;21.30;43.30;;;;;;5014579;28;20543;-60
2022/03/11 09:28:22;;;;;;;6.97;4.95;;;21.30;43.20;;;;;;4999362;28;20046;-59
2022/03/11 09:30:48;;;;;;;7.38;4.63;;;21.40;43.20;;;;;;4995637;28;20057;-60
2022/03/11 09:33:13;;;;;;;8.35;5.15;;;21.30;43.10;;;;;;4994563;28;20038;-59
2022/03/11 09:35:39;;;;;;;6.97;4.95;;;21.30;43.10;;;;;;4995370;28;20050;-59
2022/03/11 09:38:04;;;;;;;7.80;4.65;;;21.30;43.10;;;;;;4994194;28;20457;-60
2022/03/11 09:40:31;;;;;;;8.07;4.88;;;21.30;43.30;;;;;;4994666;28;20435;-60
2022/03/11 09:42:56;;;;;;;8.13;5.65;;;21.30;43.30;;;;;;4994013;28;20085;-60
2022/03/11 09:45:23;;;;;;;6.25;4.82;;;21.40;43.40;;;;;;5000559;28;20050;-60
2022/03/11 09:47:48;;;;;;;7.63;4.78;;;21.30;43.30;;;;;;5013951;28;20069;-59
2022/03/11 09:50:14;;;;;;;8.18;5.13;;;21.30;43.40;;;;;;5014399;28;20088;-59
2022/03/11 09:52:42;;;;;;;7.75;5.10;;;21.30;43.40;;;;;;5012219;28;20061;-59
2022/03/11 09:55:07;;;;;;;8.65;5.18;;;21.30;43.20;;;;;;5013438;28;20048;-59
2022/03/11 09:57:34;;;;;;;8.00;4.88;;;21.30;43.10;;;;;;5014695;28;20046;-59
2022/03/11 09:59:59;;;;;;;7.28;5.03;;;21.30;43.00;;;;;;5014224;28;20065;-59
2022/03/11 10:02:25;;;;;;;7.85;5.32;;;21.30;42.90;;;;;;5014473;28;20041;-58
2022/03/11 10:04:51;;;;;;;8.57;5.20;;;21.30;42.80;;;;;;5014600;28;20038;-59
2022/03/11 10:07:30;;;;;;;7.30;5.40;;;21.30;42.70;;;;;;5014822;28;20168;-61
2022/03/11 10:09:56;;;;;;;8.05;5.35;;;21.30;42.70;;;;;;5014519;28;20180;-59
2022/03/11 10:12:29;;;;;;;7.90;5.03;;;21.30;42.70;;;;;;5014546;28;20057;-59
2022/03/11 10:14:59;;;;;;;10.45;6.38;;;21.30;42.70;;;;;;5013577;28;20505;-59
2022/03/11 10:17:25;;;;;;;11.98;6.07;;;21.30;42.90;;;;;;5014314;28;20128;-59
2022/03/11 10:20:00;;;;;;;10.43;6.28;;;21.30;43.00;;;;;;5014156;28;20176;-59
2022/03/11 10:22:25;;;;;;;11.70;6.22;;;21.30;43.10;;;;;;5012983;28;20064;-60
2022/03/11 10:24:51;;;;;;;12.30;7.20;;;21.30;43.20;;;;;;5014364;28;20034;-59
2022/03/11 10:27:17;;;;;;;11.85;6.68;;;21.30;43.20;;;;;;5013105;28;20054;-59
2022/03/11 10:29:42;;;;;;;11.95;6.70;;;21.20;43.20;;;;;;5014167;28;20041;-60
2022/03/11 10:32:08;;;;;;;15.10;6.95;;;21.30;43.20;;;;;;5013748;28;20401;-59
2022/03/11 10:34:34;;;;;;;10.70;5.90;;;21.20;43.20;;;;;;5013550;28;20051;-59
2022/03/11 10:37:07;;;;;;;12.20;5.97;;;21.20;43.20;;;;;;5013711;28;20052;-59
2022/03/11 10:39:36;;;;;;;11.52;6.63;;;21.20;43.30;;;;;;5013712;28;20064;-60
2022/03/11 10:42:23;;;;;;;11.40;6.55;;;21.30;43.30;;;;;;5013327;28;20056;-59
2022/03/11 10:45:01;;;;;;;9.32;5.88;;;21.20;43.20;;;;;;5013954;28;20050;-60
2022/03/11 10:47:35;;;;;;;12.57;6.70;;;21.20;43.20;;;;;;5013072;28;20050;-59
2022/03/11 10:50:06;;;;;;;11.35;6.50;;;21.20;43.20;;;;;;5013136;28;20046;-59
2022/03/11 10:52:41;;;;;;;15.00;6.30;;;21.20;43.20;;;;;;5013603;28;20038;-59
2022/03/11 10:55:26;;;;;;;10.63;6.45;;;21.20;43.10;;;;;;5013161;28;20441;-59
2022/03/11 10:57:56;;;;;;;9.93;5.70;;;21.20;43.20;;;;;;5013302;28;20061;-59
2022/03/11 11:00:24;;;;;;;12.75;6.53;;;21.20;43.20;;;;;;5013268;28;20058;-59
2022/03/11 11:02:57;;;;;;;13.98;5.85;;;21.10;43.00;;;;;;5012747;28;20060;-58
2022/03/11 11:05:26;;;;;;;9.88;6.10;;;21.10;42.90;;;;;;5013223;28;20128;-59
2022/03/11 11:07:52;;;;;;;9.63;6.10;;;21.10;43.00;;;;;;5013216;28;20389;-60
2022/03/11 11:10:18;;;;;;;11.57;5.80;;;21.10;43.00;;;;;;5012534;28;20042;-59
2022/03/11 11:12:44;;;;;;;8.75;5.38;;;21.10;43.00;;;;;;5013225;28;20041;-59
2022/03/11 11:15:10;;;;;;;10.90;5.68;;;21.10;43.00;;;;;;5013400;28;20457;-59
2022/03/11 11:17:40;;;;;;;8.75;5.80;;;21.10;43.10;;;;;;5013052;28;20042;-59
2022/03/11 11:20:19;;;;;;;9.13;6.03;;;21.10;43.00;;;;;;5012653;28;20042;-60
2022/03/11 11:22:46;;;;;;;11.40;5.88;;;21.10;43.00;;;;;;5013145;28;20129;-59
2022/03/11 11:25:11;;;;;;;9.88;5.97;;;21.10;42.90;;;;;;5011987;28;20107;-59
2022/03/11 11:27:38;;;;;;;10.85;5.97;;;21.10;42.80;;;;;;5013158;28;20128;-59
2022/03/11 11:30:04;;;;;;;8.00;5.30;;;21.10;42.80;;;;;;5012855;28;20037;-59
2022/03/11 11:32:30;;;;;;;10.52;5.70;;;21.10;42.80;;;;;;5012298;28;20042;-59
2022/03/11 11:35:19;;;;;;;9.18;5.80;;;21.10;42.80;;;;;;4995599;28;20374;-59
2022/03/11 11:37:44;;;;;;;8.75;6.18;;;21.00;42.80;;;;;;5010996;28;20048;-59
2022/03/11 11:40:37;;;;;;;8.65;6.50;;;21.00;42.70;;;;;;5012765;28;20050;-59
2022/03/11 11:43:15;;;;;;;9.82;5.90;;;21.10;42.90;;;;;;5009392;28;20069;-59
2022/03/11 11:45:44;;;;;;;9.02;6.03;;;21.00;42.70;;;;;;5012049;28;20045;-59
2022/03/11 11:48:51;;;;;;;9.30;6.35;;;21.00;42.60;;;;;;5012360;28;20103;-61
2022/03/11 11:51:21;;;;;;;8.40;5.70;;;21.00;42.30;;;;;;4932795;29;20075;-59
2022/03/11 11:53:53;;;;;;;10.20;6.18;;;21.00;42.40;;;;;;4932194;29;20134;-59
2022/03/11 11:56:43;;;;;;;9.93;5.97;;;21.00;42.20;;;;;;4975945;28;20141;-59
2022/03/11 11:59:19;;;;;;;9.23;5.90;;;21.00;42.00;;;;;;5010660;28;20057;-59
2022/03/11 12:01:49;;;;;;;10.02;5.82;;;21.00;42.00;;;;;;4993478;28;20042;-59
2022/03/11 12:04:20;;;;;;;9.90;5.60;;;21.00;41.90;;;;;;4993654;28;20073;-59
2022/03/11 12:07:17;;;;;;;7.72;5.55;;;21.00;41.80;;;;;;4996249;28;20054;-59
2022/03/11 12:09:47;;;;;;;9.95;5.97;;;21.10;41.80;;;;;;4980747;28;20058;-59
2022/03/11 12:12:19;;;;;;;10.27;6.22;;;21.00;41.80;;;;;;4996909;28;20042;-59
2022/03/11 12:15:00;;;;;;;11.23;6.32;;;21.10;41.80;;;;;;5001502;28;20049;-59
2022/03/11 12:17:44;;;;;;;11.68;6.00;;;21.10;41.80;;;;;;5016425;28;20046;-59
2022/03/11 12:20:30;;;;;;;6.88;5.28;;;21.10;41.70;;;;;;5014885;28;20095;-59
2022/03/11 12:23:09;;;;;;;11.05;5.55;;;21.10;41.70;;;;;;5016269;28;20125;-59
2022/03/11 12:25:36;;;;;;;11.00;5.63;;;21.10;41.50;;;;;;5016157;28;20484;-59
2022/03/11 12:28:07;;;;;;;11.43;6.03;;;21.10;41.30;;;;;;5015179;28;20429;-59
2022/03/11 12:30:33;;;;;;;11.25;6.43;;;21.10;41.00;;;;;;5016624;28;20125;-59
2022/03/11 12:33:09;;;;;;;11.73;5.85;;;21.10;40.60;;;;;;5016228;28;20037;-59
2022/03/11 12:35:35;;;;;;;9.30;5.65;;;21.10;40.40;;;;;;5015514;28;20061;-59
2022/03/11 12:38:01;;;;;;;11.45;5.93;;;21.10;40.40;;;;;;5015691;28;20046;-59
2022/03/11 12:40:26;;;;;;;9.98;5.95;;;21.10;40.40;;;;;;5015495;28;20061;-59
2022/03/11 12:43:00;;;;;;;8.52;5.75;;;21.10;40.20;;;;;;5014846;28;20065;-59
2022/03/11 12:45:39;;;;;;;8.65;5.82;;;21.10;40.10;;;;;;4998590;28;20057;-59